createdAt,value
2018-06-17T00:00:46.421Z,0.00
2018-06-17T00:01:46.585Z,0.00
2018-06-17T00:02:46.760Z,0.00
2018-06-17T00:03:46.951Z,0.00
2018-06-17T00:04:47.407Z,0.00
2018-06-17T00:05:47.288Z,0.00
2018-06-17T00:06:47.444Z,0.00
2018-06-17T00:07:47.676Z,0.00
2018-06-17T00:08:47.839Z,0.00
2018-06-17T00:09:47.996Z,0.00
2018-06-17T00:10:48.138Z,0.00
2018-06-17T00:11:48.301Z,0.00
2018-06-17T00:12:48.513Z,0.00
2018-06-17T00:13:48.646Z,0.00
2018-06-17T00:14:48.818Z,0.00
2018-06-17T00:15:48.966Z,0.00
2018-06-17T00:16:49.127Z,0.00
2018-06-17T00:17:49.315Z,0.00
2018-06-17T00:18:49.473Z,0.00
2018-06-17T00:19:49.651Z,0.00
2018-06-17T00:20:49.827Z,0.00
2018-06-17T00:21:49.994Z,0.00
2018-06-17T00:22:50.170Z,0.00
2018-06-17T00:23:50.337Z,0.00
2018-06-17T00:24:50.503Z,0.00
2018-06-17T00:25:50.711Z,0.00
2018-06-17T00:26:50.930Z,0.00
2018-06-17T00:27:51.054Z,0.00
2018-06-17T00:28:51.208Z,0.00
2018-06-17T00:29:51.376Z,0.00
2018-06-17T00:30:51.576Z,0.00
2018-06-17T00:31:51.744Z,0.00
2018-06-17T00:32:51.932Z,0.00
2018-06-17T00:33:52.078Z,0.00
2018-06-17T00:34:52.271Z,0.00
2018-06-17T00:35:52.445Z,0.00
2018-06-17T00:36:52.611Z,0.00
2018-06-17T00:37:52.796Z,0.00
2018-06-17T00:38:52.958Z,0.00
2018-06-17T00:39:54.131Z,0.00
2018-06-17T00:40:54.077Z,0.00
2018-06-17T00:41:53.504Z,0.00
2018-06-17T00:42:53.657Z,0.00
2018-06-17T00:43:53.843Z,0.00
2018-06-17T00:44:54.035Z,0.00
2018-06-17T00:45:54.212Z,0.00
2018-06-17T00:46:54.372Z,0.00
2018-06-17T00:47:54.545Z,0.00
2018-06-17T00:48:54.707Z,0.00
2018-06-17T00:49:54.896Z,0.00
2018-06-17T00:50:55.112Z,0.00
2018-06-17T00:51:55.261Z,0.00
2018-06-17T00:52:55.420Z,0.00
2018-06-17T00:53:55.580Z,0.00
2018-06-17T00:54:55.743Z,0.00
2018-06-17T00:55:55.910Z,0.00
2018-06-17T00:56:56.086Z,0.00
2018-06-17T00:57:56.259Z,0.00
2018-06-17T00:58:56.436Z,0.00
2018-06-17T00:59:56.631Z,0.00
2018-06-17T01:00:56.814Z,0.00
2018-06-17T01:01:56.963Z,0.00
2018-06-17T01:02:57.157Z,0.00
2018-06-17T01:03:57.327Z,0.00
2018-06-17T01:04:57.525Z,0.00
2018-06-17T01:05:57.680Z,0.00
2018-06-17T01:06:57.854Z,0.00
2018-06-17T01:07:58.025Z,0.00
2018-06-17T01:08:58.201Z,0.00
2018-06-17T01:09:58.354Z,0.00
2018-06-17T01:10:58.519Z,0.00
2018-06-17T01:11:58.684Z,0.00
2018-06-17T01:12:58.861Z,0.00
2018-06-17T01:13:59.037Z,0.00
2018-06-17T01:14:59.194Z,0.00
2018-06-17T01:15:59.367Z,0.00
2018-06-17T01:16:59.552Z,0.00
2018-06-17T01:17:59.721Z,0.00
2018-06-17T01:19:00.027Z,0.00
2018-06-17T01:20:00.053Z,0.00
2018-06-17T01:21:00.219Z,0.00
2018-06-17T01:22:00.385Z,0.00
2018-06-17T01:23:00.546Z,0.00
2018-06-17T01:24:00.707Z,0.00
2018-06-17T01:25:00.913Z,0.00
2018-06-17T01:26:01.033Z,0.00
2018-06-17T01:27:01.201Z,0.00
2018-06-17T01:28:01.380Z,0.00
2018-06-17T01:29:01.559Z,0.00
2018-06-17T01:30:01.767Z,0.00
2018-06-17T01:31:01.876Z,0.00
2018-06-17T01:32:02.066Z,0.00
2018-06-17T01:33:02.276Z,0.00
2018-06-17T01:34:02.443Z,0.00
2018-06-17T01:35:02.591Z,0.00
2018-06-17T01:36:02.784Z,0.00
2018-06-17T01:37:02.959Z,0.00
2018-06-17T01:38:03.148Z,0.00
2018-06-17T01:39:03.319Z,0.00
2018-06-17T01:40:03.509Z,0.00
2018-06-17T01:41:03.645Z,0.00
2018-06-17T01:42:03.830Z,0.00
2018-06-17T01:43:03.982Z,0.00
2018-06-17T01:44:04.160Z,0.00
2018-06-17T01:45:04.330Z,0.00
2018-06-17T01:46:04.491Z,0.00
2018-06-17T01:47:04.662Z,0.00
2018-06-17T01:48:04.849Z,0.00
2018-06-17T01:49:05.027Z,0.00
2018-06-17T01:50:05.232Z,0.00
2018-06-17T01:51:05.366Z,0.00
2018-06-17T01:52:05.532Z,0.00
2018-06-17T01:53:05.685Z,0.00
2018-06-17T01:54:05.881Z,0.00
2018-06-17T01:55:06.029Z,0.00
2018-06-17T01:56:06.187Z,0.00
2018-06-17T01:57:06.408Z,0.00
2018-06-17T01:58:06.526Z,0.00
2018-06-17T01:59:06.716Z,0.00
2018-06-17T02:00:06.888Z,0.00
2018-06-17T02:01:07.074Z,0.00
2018-06-17T02:02:07.247Z,0.00
2018-06-17T02:03:07.400Z,0.00
2018-06-17T02:04:07.578Z,0.00
2018-06-17T02:05:07.784Z,0.00
2018-06-17T02:06:07.922Z,0.00
2018-06-17T02:07:08.131Z,0.00
2018-06-17T02:08:08.327Z,0.00
2018-06-17T02:09:08.513Z,0.00
2018-06-17T02:10:08.742Z,0.00
2018-06-17T02:11:08.949Z,0.00
2018-06-17T02:12:09.131Z,0.00
2018-06-17T02:13:09.299Z,0.00
2018-06-17T02:14:09.759Z,0.00
2018-06-17T02:15:09.625Z,0.00
2018-06-17T02:16:09.814Z,0.00
2018-06-17T02:17:09.996Z,0.00
2018-06-17T02:18:10.170Z,0.00
2018-06-17T02:19:10.330Z,0.00
2018-06-17T02:20:10.500Z,0.00
2018-06-17T02:21:10.678Z,0.00
2018-06-17T02:22:10.850Z,0.00
2018-06-17T02:23:11.037Z,0.00
2018-06-17T02:24:11.199Z,0.00
2018-06-17T02:25:11.373Z,0.00
2018-06-17T02:26:11.544Z,0.00
2018-06-17T02:27:11.721Z,0.00
2018-06-17T02:28:11.890Z,0.00
2018-06-17T02:29:12.069Z,0.00
2018-06-17T02:30:12.247Z,0.00
2018-06-17T02:31:12.423Z,0.00
2018-06-17T02:32:12.568Z,0.00
2018-06-17T02:33:12.769Z,0.00
2018-06-17T02:34:13.209Z,0.00
2018-06-17T02:35:13.110Z,0.00
2018-06-17T02:36:13.276Z,0.00
2018-06-17T02:37:13.475Z,0.00
2018-06-17T02:38:13.682Z,0.00
2018-06-17T02:39:13.787Z,0.00
2018-06-17T02:40:13.988Z,0.00
2018-06-17T02:41:14.111Z,0.00
2018-06-17T02:42:14.296Z,0.00
2018-06-17T02:43:14.473Z,0.00
2018-06-17T02:44:14.635Z,0.00
2018-06-17T02:45:14.824Z,0.00
2018-06-17T02:46:15.030Z,0.00
2018-06-17T02:47:15.203Z,0.00
2018-06-17T02:48:15.352Z,0.00
2018-06-17T02:49:15.564Z,0.00
2018-06-17T02:50:15.953Z,0.00
2018-06-17T02:51:15.919Z,0.00
2018-06-17T02:52:16.027Z,0.00
2018-06-17T02:53:16.193Z,0.00
2018-06-17T02:54:16.381Z,0.00
2018-06-17T02:55:16.533Z,0.00
2018-06-17T02:56:16.698Z,0.00
2018-06-17T02:57:16.871Z,0.00
2018-06-17T02:58:17.057Z,0.00
2018-06-17T02:59:17.205Z,0.00
2018-06-17T03:00:17.613Z,0.00
2018-06-17T03:01:17.535Z,0.00
2018-06-17T03:02:17.714Z,0.00
2018-06-17T03:03:17.916Z,0.00
2018-06-17T03:04:18.047Z,5.63
2018-06-17T03:05:18.225Z,5.63
2018-06-17T03:06:18.408Z,5.63
2018-06-17T03:07:18.547Z,5.63
2018-06-17T03:08:18.737Z,5.63
2018-06-17T03:09:18.893Z,5.63
2018-06-17T03:10:19.068Z,5.63
2018-06-17T03:11:19.231Z,5.63
2018-06-17T03:12:19.403Z,5.63
2018-06-17T03:13:19.608Z,5.63
2018-06-17T03:14:19.755Z,5.63
2018-06-17T03:15:19.926Z,5.63
2018-06-17T03:16:20.081Z,5.63
2018-06-17T03:17:20.305Z,5.63
2018-06-17T03:18:20.441Z,5.63
2018-06-17T03:19:20.590Z,5.63
2018-06-17T03:20:20.761Z,5.63
2018-06-17T03:21:20.937Z,5.63
2018-06-17T03:22:21.106Z,5.63
2018-06-17T03:23:21.512Z,5.63
2018-06-17T03:24:21.441Z,5.63
2018-06-17T03:25:21.635Z,5.63
2018-06-17T03:26:21.794Z,5.63
2018-06-17T03:27:21.938Z,5.63
2018-06-17T03:28:22.104Z,5.63
2018-06-17T03:29:22.300Z,5.63
2018-06-17T03:30:22.461Z,5.63
2018-06-17T03:31:22.619Z,5.63
2018-06-17T03:32:22.791Z,5.63
2018-06-17T03:33:22.969Z,5.63
2018-06-17T03:34:23.130Z,5.63
2018-06-17T03:35:23.323Z,5.63
2018-06-17T03:37:23.631Z,5.63
2018-06-17T03:38:23.810Z,5.63
2018-06-17T03:39:23.989Z,5.63
2018-06-17T03:40:24.160Z,5.63
2018-06-17T03:41:24.339Z,5.63
2018-06-17T03:42:24.547Z,5.63
2018-06-17T03:43:24.702Z,5.63
2018-06-17T03:44:24.846Z,5.63
2018-06-17T03:45:25.014Z,11.25
2018-06-17T03:46:25.201Z,11.25
2018-06-17T03:47:25.350Z,11.25
2018-06-17T03:48:25.511Z,11.25
2018-06-17T03:49:25.712Z,16.88
2018-06-17T03:50:25.848Z,16.88
2018-06-17T03:51:26.026Z,16.88
2018-06-17T03:52:26.246Z,22.50
2018-06-17T03:53:26.363Z,22.50
2018-06-17T03:54:26.575Z,22.50
2018-06-17T03:55:26.746Z,16.88
2018-06-17T03:56:26.928Z,16.88
2018-06-17T03:57:27.072Z,16.88
2018-06-17T03:58:27.228Z,16.88
2018-06-17T03:59:27.436Z,16.88
2018-06-17T04:00:27.599Z,22.50
2018-06-17T04:01:27.768Z,22.50
2018-06-17T04:02:27.958Z,22.50
2018-06-17T04:03:28.128Z,28.13
2018-06-17T04:04:28.281Z,28.13
2018-06-17T04:05:28.473Z,33.75
2018-06-17T04:06:28.649Z,28.13
2018-06-17T04:07:28.812Z,28.13
2018-06-17T04:08:29.004Z,28.13
2018-06-17T04:09:29.125Z,33.75
2018-06-17T04:10:29.304Z,39.38
2018-06-17T04:11:29.475Z,39.38
2018-06-17T04:12:29.885Z,39.38
2018-06-17T04:13:29.779Z,33.75
2018-06-17T04:14:29.949Z,28.13
2018-06-17T04:15:30.127Z,22.50
2018-06-17T04:16:30.300Z,22.50
2018-06-17T04:17:30.460Z,22.50
2018-06-17T04:18:30.634Z,22.50
2018-06-17T04:19:30.838Z,22.50
2018-06-17T04:20:30.954Z,22.50
2018-06-17T04:21:31.134Z,22.50
2018-06-17T04:22:31.302Z,22.50
2018-06-17T04:23:31.495Z,28.13
2018-06-17T04:24:31.640Z,28.13
2018-06-17T04:25:31.866Z,33.75
2018-06-17T04:26:32.005Z,33.75
2018-06-17T04:27:32.186Z,33.75
2018-06-17T04:28:32.359Z,33.75
2018-06-17T04:29:32.532Z,39.38
2018-06-17T04:30:32.696Z,39.38
2018-06-17T04:31:32.869Z,39.38
2018-06-17T04:32:33.027Z,45.00
2018-06-17T04:33:33.240Z,50.63
2018-06-17T04:34:33.369Z,56.25
2018-06-17T04:35:33.553Z,73.13
2018-06-17T04:36:33.716Z,90.00
2018-06-17T04:37:33.882Z,101.25
2018-06-17T04:38:34.036Z,106.88
2018-06-17T04:39:34.203Z,106.88
2018-06-17T04:40:34.386Z,90.00
2018-06-17T04:41:34.567Z,73.13
2018-06-17T04:42:34.707Z,61.88
2018-06-17T04:43:34.870Z,61.88
2018-06-17T04:44:35.045Z,61.88
2018-06-17T04:45:35.217Z,61.88
2018-06-17T04:46:35.404Z,61.88
2018-06-17T04:47:35.581Z,56.25
2018-06-17T04:48:36.009Z,56.25
2018-06-17T04:49:35.909Z,56.25
2018-06-17T04:50:36.090Z,56.25
2018-06-17T04:51:36.239Z,56.25
2018-06-17T04:52:36.445Z,56.25
2018-06-17T04:53:36.667Z,56.25
2018-06-17T04:54:36.776Z,56.25
2018-06-17T04:55:36.976Z,61.88
2018-06-17T04:56:37.109Z,67.50
2018-06-17T04:57:37.289Z,67.50
2018-06-17T04:58:37.449Z,73.13
2018-06-17T04:59:37.620Z,78.75
2018-06-17T05:00:37.827Z,78.75
2018-06-17T05:02:38.137Z,78.75
2018-06-17T05:03:38.288Z,78.75
2018-06-17T05:04:38.483Z,78.75
2018-06-17T05:05:38.680Z,78.75
2018-06-17T05:06:38.796Z,78.75
2018-06-17T05:07:38.962Z,84.38
2018-06-17T05:08:39.128Z,84.38
2018-06-17T05:09:39.331Z,90.00
2018-06-17T05:10:39.477Z,90.00
2018-06-17T05:11:40.062Z,90.00
2018-06-17T05:12:39.856Z,90.00
2018-06-17T05:13:40.030Z,95.63
2018-06-17T05:14:40.189Z,106.88
2018-06-17T05:15:40.355Z,106.88
2018-06-17T05:16:40.540Z,123.75
2018-06-17T05:17:40.679Z,151.88
2018-06-17T05:18:40.865Z,140.63
2018-06-17T05:19:41.037Z,135.00
2018-06-17T05:20:41.223Z,129.38
2018-06-17T05:21:41.778Z,123.75
2018-06-17T05:22:41.573Z,123.75
2018-06-17T05:23:41.740Z,123.75
2018-06-17T05:24:41.917Z,129.38
2018-06-17T05:25:42.090Z,140.63
2018-06-17T05:26:42.281Z,163.13
2018-06-17T05:27:42.437Z,191.25
2018-06-17T05:28:42.616Z,219.38
2018-06-17T05:29:42.771Z,225.00
2018-06-17T05:30:42.961Z,225.00
2018-06-17T05:31:43.110Z,225.00
2018-06-17T05:32:43.274Z,213.75
2018-06-17T05:33:43.528Z,208.13
2018-06-17T05:34:43.959Z,202.50
2018-06-17T05:35:43.777Z,225.00
2018-06-17T05:36:43.998Z,219.38
2018-06-17T05:37:44.132Z,236.25
2018-06-17T05:38:44.318Z,270.00
2018-06-17T05:39:44.476Z,258.75
2018-06-17T05:40:44.650Z,241.88
2018-06-17T05:41:44.811Z,258.75
2018-06-17T05:42:44.984Z,320.63
2018-06-17T05:43:45.147Z,286.88
2018-06-17T05:44:45.325Z,236.25
2018-06-17T05:45:45.514Z,270.00
2018-06-17T05:46:45.678Z,264.38
2018-06-17T05:47:45.847Z,253.13
2018-06-17T05:48:46.023Z,247.50
2018-06-17T05:49:46.211Z,247.50
2018-06-17T05:50:46.373Z,236.25
2018-06-17T05:51:46.544Z,225.00
2018-06-17T05:52:46.736Z,230.63
2018-06-17T05:53:46.892Z,236.25
2018-06-17T05:54:47.067Z,253.13
2018-06-17T05:55:47.243Z,270.00
2018-06-17T05:56:47.415Z,281.25
2018-06-17T05:58:47.780Z,292.50
2018-06-17T05:59:47.971Z,303.75
2018-06-17T06:00:48.155Z,343.13
2018-06-17T06:01:48.331Z,337.50
2018-06-17T06:02:48.505Z,382.50
2018-06-17T06:03:48.681Z,472.50
2018-06-17T06:04:48.855Z,556.88
2018-06-17T06:05:49.043Z,556.88
2018-06-17T06:06:49.213Z,528.75
2018-06-17T06:07:49.377Z,472.50
2018-06-17T06:08:49.559Z,438.75
2018-06-17T06:09:49.717Z,399.38
2018-06-17T06:10:49.888Z,382.50
2018-06-17T06:11:50.064Z,354.38
2018-06-17T06:12:50.250Z,331.88
2018-06-17T06:13:50.414Z,320.63
2018-06-17T06:14:50.585Z,320.63
2018-06-17T06:15:50.755Z,320.63
2018-06-17T06:16:50.919Z,315.00
2018-06-17T06:17:51.112Z,286.88
2018-06-17T06:18:51.286Z,264.38
2018-06-17T06:19:51.465Z,241.88
2018-06-17T06:20:51.638Z,230.63
2018-06-17T06:21:51.792Z,236.25
2018-06-17T06:22:51.965Z,264.38
2018-06-17T06:23:52.139Z,303.75
2018-06-17T06:24:52.338Z,326.25
2018-06-17T06:25:52.518Z,354.38
2018-06-17T06:26:52.667Z,405.00
2018-06-17T06:27:52.877Z,393.75
2018-06-17T06:28:53.000Z,376.88
2018-06-17T06:29:53.176Z,410.63
2018-06-17T06:30:53.342Z,455.63
2018-06-17T06:31:53.543Z,489.38
2018-06-17T06:32:53.685Z,523.13
2018-06-17T06:33:53.872Z,585.00
2018-06-17T06:34:54.048Z,618.75
2018-06-17T06:35:54.226Z,714.38
2018-06-17T06:36:54.397Z,697.50
2018-06-17T06:37:54.566Z,663.75
2018-06-17T06:38:54.756Z,641.25
2018-06-17T06:39:54.922Z,551.25
2018-06-17T06:40:55.101Z,478.13
2018-06-17T06:41:55.265Z,483.75
2018-06-17T06:42:55.452Z,545.63
2018-06-17T06:43:55.607Z,601.88
2018-06-17T06:44:55.776Z,990.00
2018-06-17T06:45:55.971Z,2199.38
2018-06-17T06:46:56.127Z,1260.00
2018-06-17T06:47:56.349Z,1018.13
2018-06-17T06:48:56.495Z,804.38
2018-06-17T06:49:56.683Z,714.38
2018-06-17T06:50:56.864Z,641.25
2018-06-17T06:51:57.016Z,641.25
2018-06-17T06:52:57.209Z,646.88
2018-06-17T06:53:57.366Z,708.75
2018-06-17T06:54:57.535Z,798.75
2018-06-17T06:55:57.725Z,939.38
2018-06-17T06:56:57.901Z,1215.00
2018-06-17T06:57:58.073Z,1231.88
2018-06-17T06:58:58.269Z,793.13
2018-06-17T06:59:58.461Z,984.38
2018-06-17T07:00:58.618Z,680.63
2018-06-17T07:01:58.816Z,635.63
2018-06-17T07:02:58.985Z,742.50
2018-06-17T07:03:59.159Z,1541.25
2018-06-17T07:04:59.326Z,1715.63
2018-06-17T07:05:59.536Z,2503.13
2018-06-17T07:06:59.697Z,2188.13
2018-06-17T07:07:59.870Z,2508.75
2018-06-17T07:09:00.058Z,2098.13
2018-06-17T07:10:00.330Z,849.38
2018-06-17T07:11:00.386Z,686.25
2018-06-17T07:12:00.589Z,590.63
2018-06-17T07:13:00.748Z,551.25
2018-06-17T07:14:00.948Z,551.25
2018-06-17T07:15:01.152Z,540.00
2018-06-17T07:16:01.296Z,534.38
2018-06-17T07:17:01.474Z,517.50
2018-06-17T07:18:01.664Z,489.38
2018-06-17T07:19:01.856Z,461.25
2018-06-17T07:20:02.016Z,438.75
2018-06-17T07:21:02.194Z,427.50
2018-06-17T07:22:02.351Z,410.63
2018-06-17T07:23:02.522Z,376.88
2018-06-17T07:24:02.700Z,371.25
2018-06-17T07:25:02.923Z,371.25
2018-06-17T07:26:03.051Z,399.38
2018-06-17T07:27:03.253Z,421.88
2018-06-17T07:28:03.390Z,2238.75
2018-06-17T07:29:03.587Z,2340.00
2018-06-17T07:30:03.795Z,646.88
2018-06-17T07:31:03.933Z,2233.13
2018-06-17T07:32:04.127Z,1209.38
2018-06-17T07:33:04.320Z,1636.88
2018-06-17T07:34:04.490Z,2193.75
2018-06-17T07:35:04.693Z,2328.75
2018-06-17T07:36:04.933Z,2351.25
2018-06-17T07:37:05.061Z,2323.13
2018-06-17T07:38:05.244Z,2266.88
2018-06-17T07:39:05.429Z,2176.88
2018-06-17T07:40:05.619Z,2300.63
2018-06-17T07:41:05.821Z,2205.00
2018-06-17T07:42:05.936Z,2334.38
2018-06-17T07:43:06.140Z,2295.00
2018-06-17T07:44:06.330Z,2345.63
2018-06-17T07:45:06.509Z,2306.25
2018-06-17T07:46:06.645Z,2390.63
2018-06-17T07:47:06.834Z,990.00
2018-06-17T07:48:07.013Z,1681.88
2018-06-17T07:49:07.182Z,2025.00
2018-06-17T07:50:07.378Z,2390.63
2018-06-17T07:51:07.559Z,2390.63
2018-06-17T07:52:07.747Z,2396.25
2018-06-17T07:53:07.919Z,2385.00
2018-06-17T07:54:08.107Z,2317.50
2018-06-17T07:55:08.257Z,2295.00
2018-06-17T07:56:08.484Z,1653.75
2018-06-17T07:57:08.604Z,1822.50
2018-06-17T07:58:08.797Z,2351.25
2018-06-17T07:59:08.991Z,2328.75
2018-06-17T08:00:09.223Z,2137.50
2018-06-17T08:01:09.402Z,2289.38
2018-06-17T08:03:09.780Z,1850.63
2018-06-17T08:04:09.957Z,1642.50
2018-06-17T08:05:10.143Z,2126.25
2018-06-17T08:06:10.356Z,2098.13
2018-06-17T08:07:10.553Z,2109.38
2018-06-17T08:08:10.723Z,2086.88
2018-06-17T08:09:10.954Z,2030.63
2018-06-17T08:10:11.107Z,1974.38
2018-06-17T08:11:11.318Z,1940.63
2018-06-17T08:12:11.481Z,1906.88
2018-06-17T08:13:11.708Z,1935.00
2018-06-17T08:14:11.858Z,1918.13
2018-06-17T08:15:12.004Z,1850.63
2018-06-17T08:16:12.193Z,1816.88
2018-06-17T08:17:12.388Z,1805.63
2018-06-17T08:18:12.543Z,1800.00
2018-06-17T08:19:12.747Z,1783.13
2018-06-17T08:20:12.922Z,1743.75
2018-06-17T08:21:13.126Z,1721.25
2018-06-17T08:22:13.329Z,1693.13
2018-06-17T08:23:13.455Z,1653.75
2018-06-17T08:24:13.622Z,1620.00
2018-06-17T08:25:13.797Z,1558.13
2018-06-17T08:26:13.986Z,1591.88
2018-06-17T08:27:14.148Z,1569.38
2018-06-17T08:28:14.357Z,1513.13
2018-06-17T08:29:14.542Z,1485.00
2018-06-17T08:30:14.700Z,1524.38
2018-06-17T08:31:14.883Z,1530.00
2018-06-17T08:32:15.080Z,1558.13
2018-06-17T08:33:15.333Z,1327.50
2018-06-17T08:34:15.404Z,1428.75
2018-06-17T08:35:15.614Z,1355.63
2018-06-17T08:36:15.770Z,1372.50
2018-06-17T08:37:15.957Z,1395.00
2018-06-17T08:38:16.137Z,1338.75
2018-06-17T08:39:16.324Z,1198.13
2018-06-17T08:40:16.506Z,1040.63
2018-06-17T08:41:16.667Z,1231.88
2018-06-17T08:42:16.848Z,1170.00
2018-06-17T08:43:17.080Z,956.25
2018-06-17T08:44:17.253Z,534.38
2018-06-17T08:45:17.382Z,495.00
2018-06-17T08:46:17.547Z,472.50
2018-06-17T08:47:17.803Z,444.38
2018-06-17T08:48:17.928Z,421.88
2018-06-17T08:49:18.113Z,393.75
2018-06-17T08:50:18.351Z,382.50
2018-06-17T08:51:18.446Z,388.13
2018-06-17T08:52:18.636Z,399.38
2018-06-17T08:53:18.859Z,399.38
2018-06-17T08:54:19.047Z,388.13
2018-06-17T08:55:19.151Z,388.13
2018-06-17T08:56:19.326Z,388.13
2018-06-17T08:57:19.505Z,393.75
2018-06-17T08:58:19.698Z,416.25
2018-06-17T08:59:19.895Z,399.38
2018-06-17T09:00:20.381Z,388.13
2018-06-17T09:01:20.253Z,382.50
2018-06-17T09:02:20.464Z,376.88
2018-06-17T09:03:20.649Z,382.50
2018-06-17T09:04:20.800Z,551.25
2018-06-17T09:05:21.051Z,489.38
2018-06-17T09:06:21.154Z,405.00
2018-06-17T09:07:21.342Z,405.00
2018-06-17T09:08:21.527Z,421.88
2018-06-17T09:09:21.693Z,466.88
2018-06-17T09:10:21.868Z,427.50
2018-06-17T09:11:22.089Z,455.63
2018-06-17T09:12:22.254Z,427.50
2018-06-17T09:13:22.451Z,478.13
2018-06-17T09:14:22.582Z,585.00
2018-06-17T09:15:22.754Z,405.00
2018-06-17T09:16:22.922Z,405.00
2018-06-17T09:17:23.132Z,478.13
2018-06-17T09:18:23.339Z,483.75
2018-06-17T09:19:23.539Z,765.00
2018-06-17T09:20:23.674Z,1198.13
2018-06-17T09:21:23.860Z,759.38
2018-06-17T09:22:24.028Z,776.25
2018-06-17T09:23:24.210Z,663.75
2018-06-17T09:24:24.393Z,607.50
2018-06-17T09:25:24.581Z,613.13
2018-06-17T09:26:24.743Z,562.50
2018-06-17T09:27:24.952Z,551.25
2018-06-17T09:28:25.127Z,511.88
2018-06-17T09:29:25.284Z,478.13
2018-06-17T09:30:25.480Z,438.75
2018-06-17T09:31:25.674Z,399.38
2018-06-17T09:32:25.804Z,371.25
2018-06-17T09:33:26.014Z,348.75
2018-06-17T09:34:26.173Z,331.88
2018-06-17T09:35:26.320Z,320.63
2018-06-17T09:36:26.548Z,315.00
2018-06-17T09:37:26.698Z,309.38
2018-06-17T09:38:26.884Z,315.00
2018-06-17T09:39:27.766Z,315.00
2018-06-17T09:40:27.275Z,309.38
2018-06-17T09:41:27.400Z,303.75
2018-06-17T09:42:27.565Z,298.13
2018-06-17T09:43:27.760Z,298.13
2018-06-17T09:44:27.987Z,292.50
2018-06-17T09:45:28.101Z,281.25
2018-06-17T09:46:28.290Z,281.25
2018-06-17T09:47:28.489Z,303.75
2018-06-17T09:48:28.630Z,303.75
2018-06-17T09:49:28.808Z,320.63
2018-06-17T09:50:29.032Z,360.00
2018-06-17T09:51:29.181Z,337.50
2018-06-17T09:52:29.337Z,523.13
2018-06-17T09:53:29.505Z,545.63
2018-06-17T09:54:29.691Z,511.88
2018-06-17T09:55:29.906Z,483.75
2018-06-17T09:56:30.059Z,500.63
2018-06-17T09:57:30.248Z,573.75
2018-06-17T09:58:30.520Z,624.38
2018-06-17T09:59:30.690Z,635.63
2018-06-17T10:00:30.874Z,551.25
2018-06-17T10:01:31.139Z,478.13
2018-06-17T10:02:31.239Z,500.63
2018-06-17T10:03:31.355Z,675.00
2018-06-17T10:05:31.729Z,506.25
2018-06-17T10:06:31.934Z,523.13
2018-06-17T10:07:32.145Z,478.13
2018-06-17T10:08:32.332Z,528.75
2018-06-17T10:09:32.502Z,641.25
2018-06-17T10:10:32.651Z,630.00
2018-06-17T10:11:32.835Z,489.38
2018-06-17T10:12:33.011Z,495.00
2018-06-17T10:13:33.189Z,517.50
2018-06-17T10:14:33.369Z,534.38
2018-06-17T10:15:33.605Z,658.13
2018-06-17T10:16:33.799Z,635.63
2018-06-17T10:17:34.007Z,511.88
2018-06-17T10:18:34.170Z,433.13
2018-06-17T10:19:34.341Z,388.13
2018-06-17T10:20:34.512Z,348.75
2018-06-17T10:21:34.742Z,309.38
2018-06-17T10:22:34.875Z,281.25
2018-06-17T10:23:35.058Z,270.00
2018-06-17T10:24:35.475Z,264.38
2018-06-17T10:25:35.896Z,253.13
2018-06-17T10:26:35.791Z,253.13
2018-06-17T10:27:35.731Z,253.13
2018-06-17T10:29:36.114Z,253.13
2018-06-17T10:30:36.316Z,264.38
2018-06-17T10:31:36.936Z,281.25
2018-06-17T10:32:37.143Z,286.88
2018-06-17T10:33:36.832Z,292.50
2018-06-17T10:34:37.110Z,298.13
2018-06-17T10:35:37.191Z,298.13
2018-06-17T10:36:37.389Z,292.50
2018-06-17T10:37:37.609Z,298.13
2018-06-17T10:38:37.769Z,298.13
2018-06-17T10:39:37.956Z,303.75
2018-06-17T10:40:38.109Z,309.38
2018-06-17T10:41:38.261Z,315.00
2018-06-17T10:42:38.482Z,315.00
2018-06-17T10:43:38.746Z,315.00
2018-06-17T10:44:38.979Z,315.00
2018-06-17T10:45:39.023Z,309.38
2018-06-17T10:46:39.291Z,303.75
2018-06-17T10:47:39.414Z,292.50
2018-06-17T10:48:39.585Z,286.88
2018-06-17T10:49:39.768Z,270.00
2018-06-17T10:50:39.949Z,258.75
2018-06-17T10:51:40.117Z,247.50
2018-06-17T10:52:40.298Z,236.25
2018-06-17T10:53:40.503Z,225.00
2018-06-17T10:54:40.679Z,219.38
2018-06-17T10:55:41.111Z,213.75
2018-06-17T10:56:41.050Z,213.75
2018-06-17T10:57:41.458Z,213.75
2018-06-17T10:58:41.389Z,213.75
2018-06-17T10:59:41.559Z,219.38
2018-06-17T11:00:41.734Z,225.00
2018-06-17T11:01:41.905Z,236.25
2018-06-17T11:02:42.158Z,247.50
2018-06-17T11:03:42.279Z,258.75
2018-06-17T11:04:42.466Z,270.00
2018-06-17T11:05:42.710Z,281.25
2018-06-17T11:06:42.815Z,298.13
2018-06-17T11:07:42.995Z,326.25
2018-06-17T11:08:43.177Z,354.38
2018-06-17T11:09:43.335Z,382.50
2018-06-17T11:10:43.522Z,393.75
2018-06-17T11:11:43.684Z,399.38
2018-06-17T11:12:43.868Z,416.25
2018-06-17T11:13:44.035Z,450.00
2018-06-17T11:14:44.224Z,450.00
2018-06-17T11:15:44.395Z,455.63
2018-06-17T11:16:44.588Z,466.88
2018-06-17T11:17:44.763Z,483.75
2018-06-17T11:18:44.946Z,489.38
2018-06-17T11:19:45.149Z,495.00
2018-06-17T11:20:45.309Z,495.00
2018-06-17T11:21:45.434Z,489.38
2018-06-17T11:22:45.606Z,489.38
2018-06-17T11:23:45.755Z,495.00
2018-06-17T11:24:46.045Z,495.00
2018-06-17T11:25:46.131Z,489.38
2018-06-17T11:26:46.320Z,489.38
2018-06-17T11:27:46.490Z,495.00
2018-06-17T11:28:46.670Z,511.88
2018-06-17T11:29:46.839Z,523.13
2018-06-17T11:30:47.039Z,540.00
2018-06-17T11:31:47.269Z,534.38
2018-06-17T11:32:47.460Z,528.75
2018-06-17T11:33:47.668Z,523.13
2018-06-17T11:34:47.813Z,523.13
2018-06-17T11:35:48.045Z,523.13
2018-06-17T11:36:48.184Z,528.75
2018-06-17T11:37:48.375Z,528.75
2018-06-17T11:38:48.554Z,528.75
2018-06-17T11:39:48.700Z,523.13
2018-06-17T11:40:48.887Z,517.50
2018-06-17T11:41:49.083Z,517.50
2018-06-17T11:42:49.254Z,517.50
2018-06-17T11:43:49.443Z,517.50
2018-06-17T11:44:49.601Z,523.13
2018-06-17T11:45:49.801Z,511.88
2018-06-17T11:46:50.069Z,506.25
2018-06-17T11:47:50.137Z,506.25
2018-06-17T11:48:50.319Z,579.38
2018-06-17T11:49:50.658Z,517.50
2018-06-17T11:50:50.695Z,483.75
2018-06-17T11:51:50.859Z,478.13
2018-06-17T11:52:51.057Z,472.50
2018-06-17T11:53:51.252Z,472.50
2018-06-17T11:54:51.461Z,472.50
2018-06-17T11:55:51.585Z,455.63
2018-06-17T11:56:51.986Z,455.63
2018-06-17T11:57:51.958Z,455.63
2018-06-17T11:58:52.086Z,461.25
2018-06-17T11:59:52.275Z,461.25
2018-06-17T12:00:52.468Z,455.63
2018-06-17T12:01:52.710Z,455.63
2018-06-17T12:02:52.820Z,461.25
2018-06-17T12:03:52.972Z,461.25
2018-06-17T12:04:53.148Z,466.88
2018-06-17T12:05:53.326Z,455.63
2018-06-17T12:06:53.534Z,450.00
2018-06-17T12:07:53.685Z,438.75
2018-06-17T12:08:53.867Z,433.13
2018-06-17T12:09:54.046Z,427.50
2018-06-17T12:10:54.229Z,421.88
2018-06-17T12:11:54.412Z,416.25
2018-06-17T12:12:54.612Z,410.63
2018-06-17T12:13:54.763Z,399.38
2018-06-17T12:14:54.972Z,399.38
2018-06-17T12:15:55.101Z,399.38
2018-06-17T12:16:55.324Z,388.13
2018-06-17T12:17:55.498Z,388.13
2018-06-17T12:18:55.659Z,399.38
2018-06-17T12:19:55.834Z,399.38
2018-06-17T12:20:55.995Z,399.38
2018-06-17T12:21:56.188Z,399.38
2018-06-17T12:22:56.369Z,405.00
2018-06-17T12:23:56.552Z,416.25
2018-06-17T12:24:56.752Z,421.88
2018-06-17T12:25:56.925Z,427.50
2018-06-17T12:26:57.079Z,433.13
2018-06-17T12:27:57.252Z,455.63
2018-06-17T12:28:57.454Z,450.00
2018-06-17T12:29:57.693Z,472.50
2018-06-17T12:30:57.807Z,450.00
2018-06-17T12:31:58.000Z,438.75
2018-06-17T12:32:58.423Z,450.00
2018-06-17T12:33:58.355Z,506.25
2018-06-17T12:34:58.520Z,579.38
2018-06-17T12:35:58.689Z,573.75
2018-06-17T12:36:58.847Z,573.75
2018-06-17T12:37:59.016Z,562.50
2018-06-17T12:38:59.195Z,534.38
2018-06-17T12:39:59.378Z,517.50
2018-06-17T12:40:59.589Z,483.75
2018-06-17T12:41:59.737Z,472.50
2018-06-17T12:43:00.853Z,472.50
2018-06-17T12:44:00.844Z,450.00
2018-06-17T12:45:00.316Z,427.50
2018-06-17T12:46:00.477Z,388.13
2018-06-17T12:47:00.677Z,410.63
2018-06-17T12:48:00.841Z,405.00
2018-06-17T12:49:01.028Z,371.25
2018-06-17T12:50:01.184Z,382.50
2018-06-17T12:51:01.408Z,298.13